sensor_id;sensor_type;location;lat;lon;timestamp;P1;durP1;ratioP1;P2;durP2;ratioP2
49592;SDS011;35499;51.482;4.264;2023-09-30T00:00:53;12.87;;;4.80;;
49592;SDS011;35499;51.482;4.264;2023-09-30T00:03:18;10.10;;;4.40;;
49592;SDS011;35499;51.482;4.264;2023-09-30T00:05:43;10.67;;;4.20;;
49592;SDS011;35499;51.482;4.264;2023-09-30T00:08:08;11.87;;;5.37;;
49592;SDS011;35499;51.482;4.264;2023-09-30T00:10:34;10.63;;;5.75;;
49592;SDS011;35499;51.482;4.264;2023-09-30T00:12:59;15.73;;;6.20;;
49592;SDS011;35499;51.482;4.264;2023-09-30T00:15:24;12.97;;;5.93;;
49592;SDS011;35499;51.482;4.264;2023-09-30T00:17:52;19.90;;;7.03;;
49592;SDS011;35499;51.482;4.264;2023-09-30T00:20:18;13.98;;;6.82;;
49592;SDS011;35499;51.482;4.264;2023-09-30T00:22:44;18.83;;;7.60;;
49592;SDS011;35499;51.482;4.264;2023-09-30T00:25:09;14.15;;;7.45;;
49592;SDS011;35499;51.482;4.264;2023-09-30T00:27:35;14.43;;;7.63;;
49592;SDS011;35499;51.482;4.264;2023-09-30T00:30:01;15.48;;;7.57;;
49592;SDS011;35499;51.482;4.264;2023-09-30T00:32:26;15.70;;;7.23;;
49592;SDS011;35499;51.482;4.264;2023-09-30T00:34:51;19.00;;;7.57;;
49592;SDS011;35499;51.482;4.264;2023-09-30T00:37:17;18.75;;;7.70;;
49592;SDS011;35499;51.482;4.264;2023-09-30T00:39:43;16.48;;;7.55;;
49592;SDS011;35499;51.482;4.264;2023-09-30T00:42:09;18.60;;;9.57;;
49592;SDS011;35499;51.482;4.264;2023-09-30T00:44:35;18.02;;;7.53;;
49592;SDS011;35499;51.482;4.264;2023-09-30T00:47:00;18.10;;;8.23;;
49592;SDS011;35499;51.482;4.264;2023-09-30T00:49:26;20.90;;;9.43;;
49592;SDS011;35499;51.482;4.264;2023-09-30T00:51:53;20.25;;;9.00;;
49592;SDS011;35499;51.482;4.264;2023-09-30T00:54:19;21.55;;;10.25;;
49592;SDS011;35499;51.482;4.264;2023-09-30T00:59:12;23.25;;;9.93;;
49592;SDS011;35499;51.482;4.264;2023-09-30T01:01:39;19.20;;;9.18;;
49592;SDS011;35499;51.482;4.264;2023-09-30T01:04:05;23.15;;;10.35;;
49592;SDS011;35499;51.482;4.264;2023-09-30T01:06:30;25.20;;;10.48;;
49592;SDS011;35499;51.482;4.264;2023-09-30T01:08:56;23.08;;;10.60;;
49592;SDS011;35499;51.482;4.264;2023-09-30T01:11:22;23.67;;;11.48;;
49592;SDS011;35499;51.482;4.264;2023-09-30T01:13:47;23.83;;;10.40;;
49592;SDS011;35499;51.482;4.264;2023-09-30T01:18:40;25.70;;;10.63;;
49592;SDS011;35499;51.482;4.264;2023-09-30T01:21:07;22.08;;;11.18;;
49592;SDS011;35499;51.482;4.264;2023-09-30T01:23:33;22.90;;;9.77;;
49592;SDS011;35499;51.482;4.264;2023-09-30T01:26:03;20.98;;;10.55;;
49592;SDS011;35499;51.482;4.264;2023-09-30T01:28:38;23.50;;;10.15;;
49592;SDS011;35499;51.482;4.264;2023-09-30T01:31:04;23.15;;;11.50;;
49592;SDS011;35499;51.482;4.264;2023-09-30T01:33:30;28.20;;;11.63;;
49592;SDS011;35499;51.482;4.264;2023-09-30T01:35:56;21.58;;;11.25;;
49592;SDS011;35499;51.482;4.264;2023-09-30T01:38:22;24.77;;;9.98;;
49592;SDS011;35499;51.482;4.264;2023-09-30T01:40:47;21.00;;;10.87;;
49592;SDS011;35499;51.482;4.264;2023-09-30T01:43:13;24.42;;;10.35;;
49592;SDS011;35499;51.482;4.264;2023-09-30T01:45:39;24.60;;;10.48;;
49592;SDS011;35499;51.482;4.264;2023-09-30T01:48:05;25.73;;;10.63;;
49592;SDS011;35499;51.482;4.264;2023-09-30T01:50:30;20.33;;;9.95;;
49592;SDS011;35499;51.482;4.264;2023-09-30T01:52:56;23.80;;;11.02;;
49592;SDS011;35499;51.482;4.264;2023-09-30T01:55:22;18.88;;;8.48;;
49592;SDS011;35499;51.482;4.264;2023-09-30T01:57:47;21.47;;;9.90;;
49592;SDS011;35499;51.482;4.264;2023-09-30T02:00:12;22.23;;;9.07;;
49592;SDS011;35499;51.482;4.264;2023-09-30T02:02:38;21.58;;;9.82;;
49592;SDS011;35499;51.482;4.264;2023-09-30T02:05:03;19.95;;;8.75;;
49592;SDS011;35499;51.482;4.264;2023-09-30T02:07:29;20.20;;;9.77;;
49592;SDS011;35499;51.482;4.264;2023-09-30T02:09:55;21.02;;;9.77;;
49592;SDS011;35499;51.482;4.264;2023-09-30T02:12:20;24.73;;;10.13;;
49592;SDS011;35499;51.482;4.264;2023-09-30T02:14:46;23.20;;;9.88;;
49592;SDS011;35499;51.482;4.264;2023-09-30T02:17:11;21.92;;;10.38;;
49592;SDS011;35499;51.482;4.264;2023-09-30T02:19:38;21.88;;;9.20;;
49592;SDS011;35499;51.482;4.264;2023-09-30T02:22:03;21.17;;;10.35;;
49592;SDS011;35499;51.482;4.264;2023-09-30T02:24:30;22.95;;;10.73;;
49592;SDS011;35499;51.482;4.264;2023-09-30T02:26:55;29.83;;;11.60;;
49592;SDS011;35499;51.482;4.264;2023-09-30T02:29:20;28.10;;;11.93;;
49592;SDS011;35499;51.482;4.264;2023-09-30T02:31:46;29.67;;;12.25;;
49592;SDS011;35499;51.482;4.264;2023-09-30T02:34:11;30.40;;;12.20;;
49592;SDS011;35499;51.482;4.264;2023-09-30T02:36:37;26.48;;;10.80;;
49592;SDS011;35499;51.482;4.264;2023-09-30T02:39:05;26.60;;;12.07;;
49592;SDS011;35499;51.482;4.264;2023-09-30T02:41:30;24.63;;;12.23;;
49592;SDS011;35499;51.482;4.264;2023-09-30T02:43:56;25.90;;;11.63;;
49592;SDS011;35499;51.482;4.264;2023-09-30T02:46:21;26.83;;;12.03;;
49592;SDS011;35499;51.482;4.264;2023-09-30T02:48:46;25.95;;;11.80;;
49592;SDS011;35499;51.482;4.264;2023-09-30T02:51:12;23.90;;;12.20;;
49592;SDS011;35499;51.482;4.264;2023-09-30T02:53:37;38.80;;;13.53;;
49592;SDS011;35499;51.482;4.264;2023-09-30T02:56:02;26.27;;;12.10;;
49592;SDS011;35499;51.482;4.264;2023-09-30T02:58:29;31.63;;;12.75;;
49592;SDS011;35499;51.482;4.264;2023-09-30T03:00:54;27.67;;;12.55;;
49592;SDS011;35499;51.482;4.264;2023-09-30T03:03:20;27.33;;;12.27;;
49592;SDS011;35499;51.482;4.264;2023-09-30T03:05:45;24.87;;;11.80;;
49592;SDS011;35499;51.482;4.264;2023-09-30T03:08:10;24.00;;;12.07;;
49592;SDS011;35499;51.482;4.264;2023-09-30T03:10:35;31.70;;;12.85;;
49592;SDS011;35499;51.482;4.264;2023-09-30T03:13:05;30.15;;;13.27;;
49592;SDS011;35499;51.482;4.264;2023-09-30T03:15:30;24.40;;;11.60;;
49592;SDS011;35499;51.482;4.264;2023-09-30T03:17:57;28.88;;;12.15;;
49592;SDS011;35499;51.482;4.264;2023-09-30T03:20:22;32.17;;;11.93;;
49592;SDS011;35499;51.482;4.264;2023-09-30T03:22:50;28.33;;;12.00;;
49592;SDS011;35499;51.482;4.264;2023-09-30T03:25:17;27.13;;;12.77;;
49592;SDS011;35499;51.482;4.264;2023-09-30T03:27:43;27.13;;;11.63;;
49592;SDS011;35499;51.482;4.264;2023-09-30T03:30:11;21.63;;;11.48;;
49592;SDS011;35499;51.482;4.264;2023-09-30T03:32:37;23.88;;;11.70;;
49592;SDS011;35499;51.482;4.264;2023-09-30T03:35:06;28.83;;;12.25;;
49592;SDS011;35499;51.482;4.264;2023-09-30T03:37:32;28.88;;;13.23;;
49592;SDS011;35499;51.482;4.264;2023-09-30T03:39:59;26.17;;;12.77;;
49592;SDS011;35499;51.482;4.264;2023-09-30T03:42:25;34.67;;;11.88;;
49592;SDS011;35499;51.482;4.264;2023-09-30T03:44:51;27.67;;;12.27;;
49592;SDS011;35499;51.482;4.264;2023-09-30T03:47:16;34.50;;;13.00;;
49592;SDS011;35499;51.482;4.264;2023-09-30T03:52:09;23.93;;;11.60;;
49592;SDS011;35499;51.482;4.264;2023-09-30T03:54:35;23.17;;;10.93;;
49592;SDS011;35499;51.482;4.264;2023-09-30T03:57:00;35.15;;;13.23;;
49592;SDS011;35499;51.482;4.264;2023-09-30T03:59:26;24.47;;;11.63;;
49592;SDS011;35499;51.482;4.264;2023-09-30T04:01:51;33.10;;;12.32;;
49592;SDS011;35499;51.482;4.264;2023-09-30T04:04:18;27.08;;;11.52;;
49592;SDS011;35499;51.482;4.264;2023-09-30T04:06:44;28.83;;;12.00;;
49592;SDS011;35499;51.482;4.264;2023-09-30T04:09:11;28.33;;;11.10;;
49592;SDS011;35499;51.482;4.264;2023-09-30T04:11:38;25.73;;;12.48;;
49592;SDS011;35499;51.482;4.264;2023-09-30T04:14:04;29.48;;;13.27;;
49592;SDS011;35499;51.482;4.264;2023-09-30T04:16:32;25.92;;;12.32;;
49592;SDS011;35499;51.482;4.264;2023-09-30T04:18:58;28.63;;;12.63;;
49592;SDS011;35499;51.482;4.264;2023-09-30T04:21:24;30.58;;;12.25;;
49592;SDS011;35499;51.482;4.264;2023-09-30T04:23:49;34.53;;;12.63;;
49592;SDS011;35499;51.482;4.264;2023-09-30T04:26:14;27.87;;;12.13;;
49592;SDS011;35499;51.482;4.264;2023-09-30T04:28:40;33.05;;;13.10;;
49592;SDS011;35499;51.482;4.264;2023-09-30T04:31:05;35.75;;;14.00;;
49592;SDS011;35499;51.482;4.264;2023-09-30T04:33:32;29.58;;;12.25;;
49592;SDS011;35499;51.482;4.264;2023-09-30T04:36:00;28.48;;;11.68;;
49592;SDS011;35499;51.482;4.264;2023-09-30T04:38:25;31.70;;;12.00;;
49592;SDS011;35499;51.482;4.264;2023-09-30T04:40:51;33.78;;;12.43;;
49592;SDS011;35499;51.482;4.264;2023-09-30T04:43:17;35.63;;;12.90;;
49592;SDS011;35499;51.482;4.264;2023-09-30T04:45:42;33.75;;;13.40;;
49592;SDS011;35499;51.482;4.264;2023-09-30T04:48:08;35.15;;;12.80;;
49592;SDS011;35499;51.482;4.264;2023-09-30T04:50:33;31.27;;;12.27;;
49592;SDS011;35499;51.482;4.264;2023-09-30T04:52:59;41.88;;;13.45;;
49592;SDS011;35499;51.482;4.264;2023-09-30T04:55:24;35.07;;;13.87;;
49592;SDS011;35499;51.482;4.264;2023-09-30T04:57:50;31.38;;;12.27;;
49592;SDS011;35499;51.482;4.264;2023-09-30T05:00:16;38.70;;;13.13;;
49592;SDS011;35499;51.482;4.264;2023-09-30T05:02:43;35.45;;;13.07;;
49592;SDS011;35499;51.482;4.264;2023-09-30T05:05:12;34.15;;;12.38;;
49592;SDS011;35499;51.482;4.264;2023-09-30T05:07:39;32.03;;;12.10;;
49592;SDS011;35499;51.482;4.264;2023-09-30T05:10:06;33.70;;;12.10;;
49592;SDS011;35499;51.482;4.264;2023-09-30T05:12:35;35.15;;;12.55;;
49592;SDS011;35499;51.482;4.264;2023-09-30T05:15:01;33.88;;;12.23;;
49592;SDS011;35499;51.482;4.264;2023-09-30T05:17:27;35.47;;;12.88;;
49592;SDS011;35499;51.482;4.264;2023-09-30T05:19:53;33.00;;;11.90;;
49592;SDS011;35499;51.482;4.264;2023-09-30T05:22:18;30.80;;;11.82;;
49592;SDS011;35499;51.482;4.264;2023-09-30T05:24:48;35.60;;;12.05;;
49592;SDS011;35499;51.482;4.264;2023-09-30T05:27:15;33.92;;;12.38;;
49592;SDS011;35499;51.482;4.264;2023-09-30T05:29:40;31.30;;;11.88;;
49592;SDS011;35499;51.482;4.264;2023-09-30T05:32:06;27.53;;;10.60;;
49592;SDS011;35499;51.482;4.264;2023-09-30T05:37:54;30.27;;;10.65;;
49592;SDS011;35499;51.482;4.264;2023-09-30T05:40:19;29.10;;;10.20;;
49592;SDS011;35499;51.482;4.264;2023-09-30T05:42:50;34.03;;;10.85;;
49592;SDS011;35499;51.482;4.264;2023-09-30T05:45:19;34.13;;;11.93;;
49592;SDS011;35499;51.482;4.264;2023-09-30T05:47:44;31.55;;;12.00;;
49592;SDS011;35499;51.482;4.264;2023-09-30T05:50:10;29.63;;;11.20;;
49592;SDS011;35499;51.482;4.264;2023-09-30T05:52:39;31.58;;;11.18;;
49592;SDS011;35499;51.482;4.264;2023-09-30T05:55:05;34.13;;;11.82;;
49592;SDS011;35499;51.482;4.264;2023-09-30T05:57:31;25.67;;;10.63;;
49592;SDS011;35499;51.482;4.264;2023-09-30T05:59:57;34.53;;;11.30;;
49592;SDS011;35499;51.482;4.264;2023-09-30T06:02:23;31.02;;;10.50;;
49592;SDS011;35499;51.482;4.264;2023-09-30T06:04:48;33.20;;;11.03;;
49592;SDS011;35499;51.482;4.264;2023-09-30T06:07:15;26.52;;;10.75;;
49592;SDS011;35499;51.482;4.264;2023-09-30T06:09:41;26.15;;;10.57;;
49592;SDS011;35499;51.482;4.264;2023-09-30T06:12:06;20.50;;;7.90;;
49592;SDS011;35499;51.482;4.264;2023-09-30T06:14:32;37.50;;;12.00;;
49592;SDS011;35499;51.482;4.264;2023-09-30T06:16:58;28.20;;;10.40;;
49592;SDS011;35499;51.482;4.264;2023-09-30T06:19:23;28.08;;;11.00;;
49592;SDS011;35499;51.482;4.264;2023-09-30T06:21:50;33.55;;;11.35;;
49592;SDS011;35499;51.482;4.264;2023-09-30T06:24:16;32.90;;;10.77;;
49592;SDS011;35499;51.482;4.264;2023-09-30T06:26:41;31.37;;;11.70;;
49592;SDS011;35499;51.482;4.264;2023-09-30T06:29:07;31.37;;;11.70;;
49592;SDS011;35499;51.482;4.264;2023-09-30T06:31:32;31.65;;;11.60;;
49592;SDS011;35499;51.482;4.264;2023-09-30T06:33:59;30.67;;;11.82;;
49592;SDS011;35499;51.482;4.264;2023-09-30T06:36:25;28.67;;;11.23;;
49592;SDS011;35499;51.482;4.264;2023-09-30T06:38:50;27.95;;;10.00;;
49592;SDS011;35499;51.482;4.264;2023-09-30T06:41:17;28.80;;;11.32;;
49592;SDS011;35499;51.482;4.264;2023-09-30T06:43:43;29.52;;;11.40;;
49592;SDS011;35499;51.482;4.264;2023-09-30T06:46:08;30.42;;;10.38;;
49592;SDS011;35499;51.482;4.264;2023-09-30T06:48:34;33.78;;;10.70;;
49592;SDS011;35499;51.482;4.264;2023-09-30T06:51:00;27.67;;;11.90;;
49592;SDS011;35499;51.482;4.264;2023-09-30T06:53:26;30.08;;;11.98;;
49592;SDS011;35499;51.482;4.264;2023-09-30T06:55:52;25.65;;;11.05;;
49592;SDS011;35499;51.482;4.264;2023-09-30T06:58:17;26.13;;;9.68;;
49592;SDS011;35499;51.482;4.264;2023-09-30T07:00:46;22.05;;;9.35;;
49592;SDS011;35499;51.482;4.264;2023-09-30T07:03:15;19.38;;;8.43;;
49592;SDS011;35499;51.482;4.264;2023-09-30T07:05:41;18.80;;;8.35;;
49592;SDS011;35499;51.482;4.264;2023-09-30T07:08:07;19.67;;;7.57;;
49592;SDS011;35499;51.482;4.264;2023-09-30T07:10:33;16.00;;;6.70;;
49592;SDS011;35499;51.482;4.264;2023-09-30T07:12:58;18.90;;;6.88;;
49592;SDS011;35499;51.482;4.264;2023-09-30T07:15:23;15.77;;;6.67;;
49592;SDS011;35499;51.482;4.264;2023-09-30T07:17:49;15.57;;;6.20;;
49592;SDS011;35499;51.482;4.264;2023-09-30T07:20:15;15.38;;;6.22;;
49592;SDS011;35499;51.482;4.264;2023-09-30T07:22:40;17.13;;;6.70;;
49592;SDS011;35499;51.482;4.264;2023-09-30T07:25:06;12.20;;;5.90;;
49592;SDS011;35499;51.482;4.264;2023-09-30T07:27:32;13.68;;;6.38;;
49592;SDS011;35499;51.482;4.264;2023-09-30T07:29:57;14.30;;;6.10;;
49592;SDS011;35499;51.482;4.264;2023-09-30T07:32:23;12.65;;;5.20;;
49592;SDS011;35499;51.482;4.264;2023-09-30T07:34:49;20.13;;;6.45;;
49592;SDS011;35499;51.482;4.264;2023-09-30T07:37:14;13.68;;;5.90;;
49592;SDS011;35499;51.482;4.264;2023-09-30T07:39:40;18.58;;;6.55;;
49592;SDS011;35499;51.482;4.264;2023-09-30T07:42:08;12.52;;;6.57;;
49592;SDS011;35499;51.482;4.264;2023-09-30T07:44:34;14.68;;;7.07;;
49592;SDS011;35499;51.482;4.264;2023-09-30T07:47:01;18.65;;;6.65;;
49592;SDS011;35499;51.482;4.264;2023-09-30T07:49:28;15.13;;;6.18;;
49592;SDS011;35499;51.482;4.264;2023-09-30T07:51:54;15.07;;;5.95;;
49592;SDS011;35499;51.482;4.264;2023-09-30T07:54:19;10.67;;;5.20;;
49592;SDS011;35499;51.482;4.264;2023-09-30T07:56:44;18.33;;;6.80;;
49592;SDS011;35499;51.482;4.264;2023-09-30T07:59:09;15.63;;;7.03;;
49592;SDS011;35499;51.482;4.264;2023-09-30T08:01:35;14.43;;;6.93;;
49592;SDS011;35499;51.482;4.264;2023-09-30T08:04:00;16.83;;;8.13;;
49592;SDS011;35499;51.482;4.264;2023-09-30T08:06:26;16.40;;;8.88;;
49592;SDS011;35499;51.482;4.264;2023-09-30T08:08:51;13.53;;;6.90;;
49592;SDS011;35499;51.482;4.264;2023-09-30T08:11:17;18.10;;;8.47;;
49592;SDS011;35499;51.482;4.264;2023-09-30T08:13:43;19.33;;;9.32;;
49592;SDS011;35499;51.482;4.264;2023-09-30T08:16:08;17.23;;;9.30;;
49592;SDS011;35499;51.482;4.264;2023-09-30T08:18:33;18.83;;;8.90;;
49592;SDS011;35499;51.482;4.264;2023-09-30T08:20:59;16.57;;;8.77;;
49592;SDS011;35499;51.482;4.264;2023-09-30T08:23:24;16.83;;;9.60;;
49592;SDS011;35499;51.482;4.264;2023-09-30T08:25:49;15.00;;;9.03;;
49592;SDS011;35499;51.482;4.264;2023-09-30T08:28:14;18.37;;;8.97;;
49592;SDS011;35499;51.482;4.264;2023-09-30T08:30:40;16.20;;;9.00;;
49592;SDS011;35499;51.482;4.264;2023-09-30T08:33:05;25.93;;;9.80;;
49592;SDS011;35499;51.482;4.264;2023-09-30T08:35:34;20.10;;;9.00;;
49592;SDS011;35499;51.482;4.264;2023-09-30T08:38:00;17.73;;;8.75;;
49592;SDS011;35499;51.482;4.264;2023-09-30T08:40:27;17.63;;;8.02;;
49592;SDS011;35499;51.482;4.264;2023-09-30T08:42:52;15.48;;;8.18;;
49592;SDS011;35499;51.482;4.264;2023-09-30T08:45:18;18.33;;;8.18;;
49592;SDS011;35499;51.482;4.264;2023-09-30T08:47:43;17.67;;;7.20;;
49592;SDS011;35499;51.482;4.264;2023-09-30T08:50:11;15.52;;;6.70;;
49592;SDS011;35499;51.482;4.264;2023-09-30T08:55:06;12.63;;;5.18;;
49592;SDS011;35499;51.482;4.264;2023-09-30T08:57:33;18.75;;;7.00;;
49592;SDS011;35499;51.482;4.264;2023-09-30T09:04:35;14.98;;;7.63;;
49592;SDS011;35499;51.482;4.264;2023-09-30T09:07:01;16.63;;;8.40;;
49592;SDS011;35499;51.482;4.264;2023-09-30T09:09:26;16.53;;;7.47;;
49592;SDS011;35499;51.482;4.264;2023-09-30T09:11:51;21.47;;;9.57;;
49592;SDS011;35499;51.482;4.264;2023-09-30T09:14:17;17.20;;;8.98;;
49592;SDS011;35499;51.482;4.264;2023-09-30T09:16:52;20.00;;;9.13;;
49592;SDS011;35499;51.482;4.264;2023-09-30T09:19:19;18.98;;;9.18;;
49592;SDS011;35499;51.482;4.264;2023-09-30T09:21:56;20.52;;;8.02;;
49592;SDS011;35499;51.482;4.264;2023-09-30T09:24:29;18.42;;;9.27;;
49592;SDS011;35499;51.482;4.264;2023-09-30T09:29:30;17.48;;;9.55;;
49592;SDS011;35499;51.482;4.264;2023-09-30T09:32:06;18.58;;;8.80;;
49592;SDS011;35499;51.482;4.264;2023-09-30T09:34:38;18.73;;;9.68;;
49592;SDS011;35499;51.482;4.264;2023-09-30T09:37:20;15.40;;;9.25;;
49592;SDS011;35499;51.482;4.264;2023-09-30T09:39:56;16.88;;;9.95;;
49592;SDS011;35499;51.482;4.264;2023-09-30T09:44:51;17.60;;;8.50;;
49592;SDS011;35499;51.482;4.264;2023-09-30T09:47:19;16.23;;;9.48;;
49592;SDS011;35499;51.482;4.264;2023-09-30T09:49:46;16.80;;;9.15;;
49592;SDS011;35499;51.482;4.264;2023-09-30T09:52:12;16.90;;;8.75;;
49592;SDS011;35499;51.482;4.264;2023-09-30T09:54:40;17.30;;;8.65;;
49592;SDS011;35499;51.482;4.264;2023-09-30T09:57:08;17.48;;;7.72;;
49592;SDS011;35499;51.482;4.264;2023-09-30T09:59:36;14.20;;;6.90;;
49592;SDS011;35499;51.482;4.264;2023-09-30T10:02:03;12.60;;;7.03;;
49592;SDS011;35499;51.482;4.264;2023-09-30T10:04:35;19.40;;;7.10;;
49592;SDS011;35499;51.482;4.264;2023-09-30T10:07:01;15.75;;;7.30;;
49592;SDS011;35499;51.482;4.264;2023-09-30T10:09:28;13.30;;;5.85;;
49592;SDS011;35499;51.482;4.264;2023-09-30T10:11:58;16.40;;;7.03;;
49592;SDS011;35499;51.482;4.264;2023-09-30T10:14:29;18.85;;;7.65;;
49592;SDS011;35499;51.482;4.264;2023-09-30T10:16:57;12.93;;;6.10;;
49592;SDS011;35499;51.482;4.264;2023-09-30T10:19:23;14.32;;;6.00;;
49592;SDS011;35499;51.482;4.264;2023-09-30T10:24:45;12.57;;;5.90;;
49592;SDS011;35499;51.482;4.264;2023-09-30T10:29:46;13.93;;;5.18;;
49592;SDS011;35499;51.482;4.264;2023-09-30T10:32:11;14.18;;;4.50;;
49592;SDS011;35499;51.482;4.264;2023-09-30T10:34:37;8.67;;;3.83;;
49592;SDS011;35499;51.482;4.264;2023-09-30T10:39:54;12.02;;;4.38;;
49592;SDS011;35499;51.482;4.264;2023-09-30T10:42:42;11.35;;;4.57;;
49592;SDS011;35499;51.482;4.264;2023-09-30T10:45:42;10.35;;;3.45;;
49592;SDS011;35499;51.482;4.264;2023-09-30T10:51:12;15.05;;;4.30;;
49592;SDS011;35499;51.482;4.264;2023-09-30T10:53:43;11.50;;;4.25;;
49592;SDS011;35499;51.482;4.264;2023-09-30T10:56:10;9.15;;;3.42;;
49592;SDS011;35499;51.482;4.264;2023-09-30T10:58:42;10.32;;;2.83;;
49592;SDS011;35499;51.482;4.264;2023-09-30T11:01:16;12.85;;;3.25;;
49592;SDS011;35499;51.482;4.264;2023-09-30T11:03:45;9.13;;;3.42;;
49592;SDS011;35499;51.482;4.264;2023-09-30T11:06:12;10.48;;;3.25;;
49592;SDS011;35499;51.482;4.264;2023-09-30T11:08:45;10.88;;;3.30;;
49592;SDS011;35499;51.482;4.264;2023-09-30T11:14:19;11.23;;;3.05;;
49592;SDS011;35499;51.482;4.264;2023-09-30T11:19:47;8.23;;;2.45;;
49592;SDS011;35499;51.482;4.264;2023-09-30T11:22:12;10.52;;;2.50;;
49592;SDS011;35499;51.482;4.264;2023-09-30T11:24:40;9.60;;;2.40;;
49592;SDS011;35499;51.482;4.264;2023-09-30T11:29:49;9.50;;;2.78;;
49592;SDS011;35499;51.482;4.264;2023-09-30T11:32:24;8.95;;;2.40;;
49592;SDS011;35499;51.482;4.264;2023-09-30T11:34:54;11.02;;;2.78;;
49592;SDS011;35499;51.482;4.264;2023-09-30T11:37:19;9.15;;;2.35;;
49592;SDS011;35499;51.482;4.264;2023-09-30T11:45:36;9.40;;;2.03;;
49592;SDS011;35499;51.482;4.264;2023-09-30T11:48:02;11.30;;;2.13;;
49592;SDS011;35499;51.482;4.264;2023-09-30T11:50:47;6.93;;;1.90;;
49592;SDS011;35499;51.482;4.264;2023-09-30T11:53:20;7.10;;;2.17;;
49592;SDS011;35499;51.482;4.264;2023-09-30T11:55:45;8.82;;;2.33;;
49592;SDS011;35499;51.482;4.264;2023-09-30T11:58:20;8.87;;;2.27;;
49592;SDS011;35499;51.482;4.264;2023-09-30T12:00:54;12.43;;;2.33;;
49592;SDS011;35499;51.482;4.264;2023-09-30T12:03:22;10.30;;;2.17;;
49592;SDS011;35499;51.482;4.264;2023-09-30T12:05:48;10.40;;;2.20;;
49592;SDS011;35499;51.482;4.264;2023-09-30T12:08:13;10.70;;;2.65;;
49592;SDS011;35499;51.482;4.264;2023-09-30T12:13:05;7.15;;;2.10;;
49592;SDS011;35499;51.482;4.264;2023-09-30T12:15:30;7.68;;;1.88;;
49592;SDS011;35499;51.482;4.264;2023-09-30T12:17:56;9.93;;;2.10;;
49592;SDS011;35499;51.482;4.264;2023-09-30T12:20:21;8.23;;;2.15;;
49592;SDS011;35499;51.482;4.264;2023-09-30T12:22:49;6.10;;;2.00;;
49592;SDS011;35499;51.482;4.264;2023-09-30T12:25:16;9.00;;;1.80;;
49592;SDS011;35499;51.482;4.264;2023-09-30T12:30:30;6.88;;;1.73;;
49592;SDS011;35499;51.482;4.264;2023-09-30T12:35:53;6.85;;;2.08;;
49592;SDS011;35499;51.482;4.264;2023-09-30T12:38:18;5.30;;;1.63;;
49592;SDS011;35499;51.482;4.264;2023-09-30T12:40:43;8.97;;;2.20;;
49592;SDS011;35499;51.482;4.264;2023-09-30T12:43:09;8.77;;;1.93;;
49592;SDS011;35499;51.482;4.264;2023-09-30T12:45:35;5.57;;;1.70;;
49592;SDS011;35499;51.482;4.264;2023-09-30T12:48:00;5.85;;;1.88;;
49592;SDS011;35499;51.482;4.264;2023-09-30T12:50:25;10.67;;;2.53;;
49592;SDS011;35499;51.482;4.264;2023-09-30T12:52:51;6.83;;;2.10;;
49592;SDS011;35499;51.482;4.264;2023-09-30T12:55:16;8.07;;;1.90;;
49592;SDS011;35499;51.482;4.264;2023-09-30T12:57:57;6.88;;;1.90;;
49592;SDS011;35499;51.482;4.264;2023-09-30T13:00:22;8.20;;;2.10;;
49592;SDS011;35499;51.482;4.264;2023-09-30T13:05:55;8.50;;;1.80;;
49592;SDS011;35499;51.482;4.264;2023-09-30T13:08:21;9.23;;;2.13;;
49592;SDS011;35499;51.482;4.264;2023-09-30T13:10:46;6.50;;;2.10;;
49592;SDS011;35499;51.482;4.264;2023-09-30T13:13:15;6.10;;;1.58;;
49592;SDS011;35499;51.482;4.264;2023-09-30T13:15:40;7.95;;;1.33;;
49592;SDS011;35499;51.482;4.264;2023-09-30T13:18:06;7.60;;;1.50;;
49592;SDS011;35499;51.482;4.264;2023-09-30T13:20:31;8.73;;;1.50;;
49592;SDS011;35499;51.482;4.264;2023-09-30T13:25:52;8.90;;;1.65;;
49592;SDS011;35499;51.482;4.264;2023-09-30T13:28:17;6.70;;;1.45;;
49592;SDS011;35499;51.482;4.264;2023-09-30T13:30:43;9.53;;;1.57;;
49592;SDS011;35499;51.482;4.264;2023-09-30T13:33:10;10.57;;;2.17;;
49592;SDS011;35499;51.482;4.264;2023-09-30T13:35:35;6.70;;;1.70;;
49592;SDS011;35499;51.482;4.264;2023-09-30T13:38:01;6.82;;;1.58;;
49592;SDS011;35499;51.482;4.264;2023-09-30T13:40:44;4.97;;;1.40;;
49592;SDS011;35499;51.482;4.264;2023-09-30T13:43:11;5.90;;;1.38;;
49592;SDS011;35499;51.482;4.264;2023-09-30T13:45:36;9.40;;;1.83;;
49592;SDS011;35499;51.482;4.264;2023-09-30T13:48:02;9.10;;;2.20;;
49592;SDS011;35499;51.482;4.264;2023-09-30T13:50:27;6.85;;;1.58;;
49592;SDS011;35499;51.482;4.264;2023-09-30T13:52:53;5.80;;;2.00;;
49592;SDS011;35499;51.482;4.264;2023-09-30T13:55:18;10.57;;;1.70;;
49592;SDS011;35499;51.482;4.264;2023-09-30T13:57:47;6.80;;;1.83;;
49592;SDS011;35499;51.482;4.264;2023-09-30T14:00:15;6.43;;;1.60;;
49592;SDS011;35499;51.482;4.264;2023-09-30T14:02:41;6.57;;;1.75;;
49592;SDS011;35499;51.482;4.264;2023-09-30T14:05:08;13.93;;;1.73;;
49592;SDS011;35499;51.482;4.264;2023-09-30T14:07:34;6.93;;;1.70;;
49592;SDS011;35499;51.482;4.264;2023-09-30T14:10:00;9.48;;;1.88;;
49592;SDS011;35499;51.482;4.264;2023-09-30T14:12:26;8.07;;;1.63;;
49592;SDS011;35499;51.482;4.264;2023-09-30T14:14:51;8.37;;;1.63;;
49592;SDS011;35499;51.482;4.264;2023-09-30T14:17:17;8.80;;;1.70;;
49592;SDS011;35499;51.482;4.264;2023-09-30T14:19:42;6.90;;;1.65;;
49592;SDS011;35499;51.482;4.264;2023-09-30T14:22:08;6.38;;;1.60;;
49592;SDS011;35499;51.482;4.264;2023-09-30T14:24:34;6.03;;;1.55;;
49592;SDS011;35499;51.482;4.264;2023-09-30T14:27:01;7.70;;;1.52;;
49592;SDS011;35499;51.482;4.264;2023-09-30T14:29:27;7.00;;;1.55;;
49592;SDS011;35499;51.482;4.264;2023-09-30T14:31:53;9.40;;;1.80;;
49592;SDS011;35499;51.482;4.264;2023-09-30T14:34:18;6.25;;;2.00;;
49592;SDS011;35499;51.482;4.264;2023-09-30T14:36:44;5.90;;;1.55;;
49592;SDS011;35499;51.482;4.264;2023-09-30T14:39:09;6.63;;;2.00;;
49592;SDS011;35499;51.482;4.264;2023-09-30T14:41:35;8.70;;;2.60;;
49592;SDS011;35499;51.482;4.264;2023-09-30T14:44:00;7.57;;;2.20;;
49592;SDS011;35499;51.482;4.264;2023-09-30T14:46:26;6.00;;;1.50;;
49592;SDS011;35499;51.482;4.264;2023-09-30T14:48:51;8.80;;;1.65;;
49592;SDS011;35499;51.482;4.264;2023-09-30T14:51:16;8.40;;;1.90;;
49592;SDS011;35499;51.482;4.264;2023-09-30T14:53:49;7.57;;;1.50;;
49592;SDS011;35499;51.482;4.264;2023-09-30T14:59:12;9.48;;;1.73;;
49592;SDS011;35499;51.482;4.264;2023-09-30T15:01:37;7.05;;;1.60;;
49592;SDS011;35499;51.482;4.264;2023-09-30T15:04:15;5.32;;;1.50;;
49592;SDS011;35499;51.482;4.264;2023-09-30T15:06:41;8.40;;;1.67;;
49592;SDS011;35499;51.482;4.264;2023-09-30T15:09:07;7.97;;;1.75;;
49592;SDS011;35499;51.482;4.264;2023-09-30T15:11:36;6.05;;;1.58;;
49592;SDS011;35499;51.482;4.264;2023-09-30T15:14:02;6.20;;;1.23;;
49592;SDS011;35499;51.482;4.264;2023-09-30T15:16:27;7.20;;;1.53;;
49592;SDS011;35499;51.482;4.264;2023-09-30T15:18:53;8.35;;;1.90;;
49592;SDS011;35499;51.482;4.264;2023-09-30T15:21:19;6.68;;;1.80;;
49592;SDS011;35499;51.482;4.264;2023-09-30T15:23:44;8.02;;;1.55;;
49592;SDS011;35499;51.482;4.264;2023-09-30T15:26:10;6.03;;;1.65;;
49592;SDS011;35499;51.482;4.264;2023-09-30T15:28:35;6.82;;;1.30;;
49592;SDS011;35499;51.482;4.264;2023-09-30T15:31:01;8.65;;;2.22;;
49592;SDS011;35499;51.482;4.264;2023-09-30T15:33:27;6.65;;;1.50;;
49592;SDS011;35499;51.482;4.264;2023-09-30T15:35:53;7.03;;;1.50;;